sensor_id;sensor_type;location;lat;lon;timestamp;P1;durP1;ratioP1;P2;durP2;ratioP2
31594;SDS011;18200;48.726;8.892;2022-11-20T00:02:34;11.00;;;5.65;;
31594;SDS011;18200;48.726;8.892;2022-11-20T00:06:34;9.07;;;4.68;;
31594;SDS011;18200;48.726;8.892;2022-11-20T00:10:38;7.95;;;5.30;;
31594;SDS011;18200;48.726;8.892;2022-11-20T00:14:40;11.70;;;5.40;;
31594;SDS011;18200;48.726;8.892;2022-11-20T00:18:41;9.43;;;5.53;;
31594;SDS011;18200;48.726;8.892;2022-11-20T00:22:42;12.48;;;4.85;;
31594;SDS011;18200;48.726;8.892;2022-11-20T00:26:42;9.80;;;5.22;;
31594;SDS011;18200;48.726;8.892;2022-11-20T00:30:46;7.15;;;4.18;;
31594;SDS011;18200;48.726;8.892;2022-11-20T00:34:46;9.18;;;4.88;;
31594;SDS011;18200;48.726;8.892;2022-11-20T00:38:50;7.55;;;5.20;;
31594;SDS011;18200;48.726;8.892;2022-11-20T00:46:52;9.15;;;4.80;;
31594;SDS011;18200;48.726;8.892;2022-11-20T00:50:52;8.90;;;5.20;;
31594;SDS011;18200;48.726;8.892;2022-11-20T00:54:53;8.80;;;4.80;;
31594;SDS011;18200;48.726;8.892;2022-11-20T00:58:54;10.68;;;5.07;;
31594;SDS011;18200;48.726;8.892;2022-11-20T01:02:55;7.15;;;4.82;;
31594;SDS011;18200;48.726;8.892;2022-11-20T01:06:56;10.05;;;5.10;;
31594;SDS011;18200;48.726;8.892;2022-11-20T01:11:00;10.40;;;5.55;;
31594;SDS011;18200;48.726;8.892;2022-11-20T01:15:04;9.60;;;5.15;;
31594;SDS011;18200;48.726;8.892;2022-11-20T01:19:06;13.05;;;5.60;;
31594;SDS011;18200;48.726;8.892;2022-11-20T01:23:09;10.25;;;5.63;;
31594;SDS011;18200;48.726;8.892;2022-11-20T01:27:09;6.85;;;4.80;;
31594;SDS011;18200;48.726;8.892;2022-11-20T01:31:17;8.88;;;5.25;;
31594;SDS011;18200;48.726;8.892;2022-11-20T01:35:19;10.32;;;5.97;;
31594;SDS011;18200;48.726;8.892;2022-11-20T01:39:21;8.10;;;5.38;;
31594;SDS011;18200;48.726;8.892;2022-11-20T01:43:24;9.45;;;4.97;;
31594;SDS011;18200;48.726;8.892;2022-11-20T01:47:33;11.07;;;5.78;;
31594;SDS011;18200;48.726;8.892;2022-11-20T01:51:42;10.32;;;5.78;;
31594;SDS011;18200;48.726;8.892;2022-11-20T01:55:48;10.45;;;5.28;;
31594;SDS011;18200;48.726;8.892;2022-11-20T01:59:53;7.68;;;3.88;;
31594;SDS011;18200;48.726;8.892;2022-11-20T02:04:01;6.00;;;3.80;;
31594;SDS011;18200;48.726;8.892;2022-11-20T02:08:03;6.50;;;3.90;;
31594;SDS011;18200;48.726;8.892;2022-11-20T02:12:05;7.65;;;4.25;;
31594;SDS011;18200;48.726;8.892;2022-11-20T02:16:27;7.00;;;4.45;;
31594;SDS011;18200;48.726;8.892;2022-11-20T02:20:30;9.07;;;4.93;;
31594;SDS011;18200;48.726;8.892;2022-11-20T02:24:34;8.27;;;4.68;;
31594;SDS011;18200;48.726;8.892;2022-11-20T02:28:34;8.30;;;5.35;;
31594;SDS011;18200;48.726;8.892;2022-11-20T02:32:35;8.52;;;4.63;;
31594;SDS011;18200;48.726;8.892;2022-11-20T02:36:36;6.13;;;4.57;;
31594;SDS011;18200;48.726;8.892;2022-11-20T02:40:39;8.13;;;4.77;;
31594;SDS011;18200;48.726;8.892;2022-11-20T02:44:40;11.90;;;5.70;;
31594;SDS011;18200;48.726;8.892;2022-11-20T02:48:41;13.02;;;7.15;;
31594;SDS011;18200;48.726;8.892;2022-11-20T02:52:41;12.73;;;5.95;;
31594;SDS011;18200;48.726;8.892;2022-11-20T02:56:42;11.23;;;5.53;;
31594;SDS011;18200;48.726;8.892;2022-11-20T03:00:43;8.68;;;4.68;;
31594;SDS011;18200;48.726;8.892;2022-11-20T03:04:43;9.52;;;4.55;;
31594;SDS011;18200;48.726;8.892;2022-11-20T03:08:44;10.45;;;4.65;;
31594;SDS011;18200;48.726;8.892;2022-11-20T03:12:44;6.97;;;4.20;;
31594;SDS011;18200;48.726;8.892;2022-11-20T03:16:45;6.22;;;4.32;;
31594;SDS011;18200;48.726;8.892;2022-11-20T03:20:45;8.95;;;5.15;;
31594;SDS011;18200;48.726;8.892;2022-11-20T03:24:46;10.32;;;4.82;;
31594;SDS011;18200;48.726;8.892;2022-11-20T03:28:51;8.52;;;5.05;;
31594;SDS011;18200;48.726;8.892;2022-11-20T03:32:53;8.73;;;5.03;;
31594;SDS011;18200;48.726;8.892;2022-11-20T03:36:53;9.18;;;4.70;;
31594;SDS011;18200;48.726;8.892;2022-11-20T03:40:57;7.65;;;5.05;;
31594;SDS011;18200;48.726;8.892;2022-11-20T03:44:59;6.50;;;4.43;;
31594;SDS011;18200;48.726;8.892;2022-11-20T03:48:59;9.88;;;5.25;;
31594;SDS011;18200;48.726;8.892;2022-11-20T03:52:59;9.07;;;5.18;;
31594;SDS011;18200;48.726;8.892;2022-11-20T03:57:00;10.90;;;5.45;;
31594;SDS011;18200;48.726;8.892;2022-11-20T04:01:04;11.55;;;5.15;;
31594;SDS011;18200;48.726;8.892;2022-11-20T04:05:08;10.40;;;5.45;;
31594;SDS011;18200;48.726;8.892;2022-11-20T04:09:09;8.90;;;6.15;;
31594;SDS011;18200;48.726;8.892;2022-11-20T04:13:09;11.73;;;6.88;;
31594;SDS011;18200;48.726;8.892;2022-11-20T04:17:10;11.45;;;5.90;;
31594;SDS011;18200;48.726;8.892;2022-11-20T04:21:10;7.55;;;5.50;;
31594;SDS011;18200;48.726;8.892;2022-11-20T04:25:11;10.57;;;5.80;;
31594;SDS011;18200;48.726;8.892;2022-11-20T04:29:12;8.80;;;5.88;;
31594;SDS011;18200;48.726;8.892;2022-11-20T04:33:12;8.75;;;5.95;;
31594;SDS011;18200;48.726;8.892;2022-11-20T04:37:13;9.60;;;5.10;;
31594;SDS011;18200;48.726;8.892;2022-11-20T04:41:17;11.00;;;5.85;;
31594;SDS011;18200;48.726;8.892;2022-11-20T04:45:19;9.18;;;5.60;;
31594;SDS011;18200;48.726;8.892;2022-11-20T04:53:29;8.88;;;5.93;;
31594;SDS011;18200;48.726;8.892;2022-11-20T04:57:29;11.52;;;6.55;;
31594;SDS011;18200;48.726;8.892;2022-11-20T05:01:30;10.52;;;6.72;;
31594;SDS011;18200;48.726;8.892;2022-11-20T05:05:30;10.90;;;5.95;;
31594;SDS011;18200;48.726;8.892;2022-11-20T05:09:30;10.77;;;6.13;;
31594;SDS011;18200;48.726;8.892;2022-11-20T05:13:31;11.80;;;6.85;;
31594;SDS011;18200;48.726;8.892;2022-11-20T05:17:31;12.70;;;6.25;;
31594;SDS011;18200;48.726;8.892;2022-11-20T05:21:32;18.15;;;7.18;;
31594;SDS011;18200;48.726;8.892;2022-11-20T05:25:32;10.95;;;6.80;;
31594;SDS011;18200;48.726;8.892;2022-11-20T05:29:33;9.65;;;6.38;;
31594;SDS011;18200;48.726;8.892;2022-11-20T05:33:33;11.75;;;5.95;;
31594;SDS011;18200;48.726;8.892;2022-11-20T05:37:35;9.85;;;5.95;;
31594;SDS011;18200;48.726;8.892;2022-11-20T05:41:35;12.20;;;6.35;;
31594;SDS011;18200;48.726;8.892;2022-11-20T05:45:36;8.18;;;5.05;;
31594;SDS011;18200;48.726;8.892;2022-11-20T05:49:36;7.97;;;4.68;;
31594;SDS011;18200;48.726;8.892;2022-11-20T05:53:37;9.60;;;5.47;;
31594;SDS011;18200;48.726;8.892;2022-11-20T05:57:37;7.25;;;4.18;;
31594;SDS011;18200;48.726;8.892;2022-11-20T06:01:37;5.97;;;4.05;;
31594;SDS011;18200;48.726;8.892;2022-11-20T06:05:38;9.88;;;4.85;;
31594;SDS011;18200;48.726;8.892;2022-11-20T06:09:38;12.40;;;7.13;;
31594;SDS011;18200;48.726;8.892;2022-11-20T06:13:39;5.32;;;3.10;;
31594;SDS011;18200;48.726;8.892;2022-11-20T06:17:39;4.80;;;3.20;;
31594;SDS011;18200;48.726;8.892;2022-11-20T06:21:40;3.83;;;3.15;;
31594;SDS011;18200;48.726;8.892;2022-11-20T06:25:41;10.57;;;7.88;;
31594;SDS011;18200;48.726;8.892;2022-11-20T06:29:42;4.10;;;2.97;;
31594;SDS011;18200;48.726;8.892;2022-11-20T06:33:43;3.80;;;2.95;;
31594;SDS011;18200;48.726;8.892;2022-11-20T06:37:44;10.82;;;5.00;;
31594;SDS011;18200;48.726;8.892;2022-11-20T06:41:44;5.20;;;2.70;;
31594;SDS011;18200;48.726;8.892;2022-11-20T06:45:44;3.83;;;2.58;;
31594;SDS011;18200;48.726;8.892;2022-11-20T06:49:45;4.97;;;2.90;;
31594;SDS011;18200;48.726;8.892;2022-11-20T06:53:45;4.95;;;2.58;;
31594;SDS011;18200;48.726;8.892;2022-11-20T06:57:46;4.65;;;3.28;;
31594;SDS011;18200;48.726;8.892;2022-11-20T07:01:47;3.47;;;2.33;;
31594;SDS011;18200;48.726;8.892;2022-11-20T07:05:47;4.18;;;2.78;;
31594;SDS011;18200;48.726;8.892;2022-11-20T07:09:48;6.10;;;2.67;;
31594;SDS011;18200;48.726;8.892;2022-11-20T07:13:48;5.00;;;2.90;;
31594;SDS011;18200;48.726;8.892;2022-11-20T07:17:49;5.32;;;2.55;;
31594;SDS011;18200;48.726;8.892;2022-11-20T07:21:49;5.75;;;3.03;;
31594;SDS011;18200;48.726;8.892;2022-11-20T07:25:50;4.03;;;2.70;;
31594;SDS011;18200;48.726;8.892;2022-11-20T07:29:50;4.32;;;2.80;;
31594;SDS011;18200;48.726;8.892;2022-11-20T07:33:50;5.00;;;2.75;;
31594;SDS011;18200;48.726;8.892;2022-11-20T07:37:51;9.75;;;6.05;;
31594;SDS011;18200;48.726;8.892;2022-11-20T07:41:51;14.32;;;6.07;;
31594;SDS011;18200;48.726;8.892;2022-11-20T07:45:52;8.10;;;3.05;;
31594;SDS011;18200;48.726;8.892;2022-11-20T07:49:54;7.00;;;3.15;;
31594;SDS011;18200;48.726;8.892;2022-11-20T07:53:55;6.75;;;3.95;;
31594;SDS011;18200;48.726;8.892;2022-11-20T07:57:55;4.50;;;2.67;;
31594;SDS011;18200;48.726;8.892;2022-11-20T08:01:57;3.47;;;1.80;;
31594;SDS011;18200;48.726;8.892;2022-11-20T08:06:00;4.00;;;1.90;;
31594;SDS011;18200;48.726;8.892;2022-11-20T08:10:01;5.03;;;3.90;;
31594;SDS011;18200;48.726;8.892;2022-11-20T08:14:02;1.88;;;1.23;;
31594;SDS011;18200;48.726;8.892;2022-11-20T08:18:11;5.53;;;4.28;;
31594;SDS011;18200;48.726;8.892;2022-11-20T08:22:12;4.22;;;2.90;;
31594;SDS011;18200;48.726;8.892;2022-11-20T08:26:12;4.07;;;1.75;;
31594;SDS011;18200;48.726;8.892;2022-11-20T08:30:13;4.72;;;1.52;;
31594;SDS011;18200;48.726;8.892;2022-11-20T08:34:13;3.08;;;2.28;;
31594;SDS011;18200;48.726;8.892;2022-11-20T08:38:14;2.22;;;1.40;;
31594;SDS011;18200;48.726;8.892;2022-11-20T08:42:20;2.40;;;1.90;;
31594;SDS011;18200;48.726;8.892;2022-11-20T08:46:21;2.70;;;1.10;;
31594;SDS011;18200;48.726;8.892;2022-11-20T08:50:23;3.05;;;1.50;;
31594;SDS011;18200;48.726;8.892;2022-11-20T08:54:23;4.10;;;1.17;;
31594;SDS011;18200;48.726;8.892;2022-11-20T08:58:24;1.65;;;1.30;;
31594;SDS011;18200;48.726;8.892;2022-11-20T09:02:25;2.42;;;1.13;;
31594;SDS011;18200;48.726;8.892;2022-11-20T09:06:26;3.97;;;3.10;;
31594;SDS011;18200;48.726;8.892;2022-11-20T09:10:27;2.85;;;1.30;;
31594;SDS011;18200;48.726;8.892;2022-11-20T09:14:27;3.78;;;3.38;;
31594;SDS011;18200;48.726;8.892;2022-11-20T09:18:30;1.95;;;1.85;;
31594;SDS011;18200;48.726;8.892;2022-11-20T09:22:33;1.13;;;0.90;;
31594;SDS011;18200;48.726;8.892;2022-11-20T09:26:34;1.10;;;0.80;;
31594;SDS011;18200;48.726;8.892;2022-11-20T09:30:34;3.10;;;1.10;;
31594;SDS011;18200;48.726;8.892;2022-11-20T09:34:35;3.17;;;1.20;;
31594;SDS011;18200;48.726;8.892;2022-11-20T09:38:35;1.42;;;1.25;;
31594;SDS011;18200;48.726;8.892;2022-11-20T09:42:47;13.57;;;12.32;;
31594;SDS011;18200;48.726;8.892;2022-11-20T09:51:57;4.38;;;3.00;;
31594;SDS011;18200;48.726;8.892;2022-11-20T09:56:17;3.08;;;1.73;;
31594;SDS011;18200;48.726;8.892;2022-11-20T10:00:20;5.20;;;2.80;;
31594;SDS011;18200;48.726;8.892;2022-11-20T10:04:21;24.27;;;22.05;;
31594;SDS011;18200;48.726;8.892;2022-11-20T10:08:23;2.03;;;1.52;;
31594;SDS011;18200;48.726;8.892;2022-11-20T10:21:33;4.18;;;2.60;;
31594;SDS011;18200;48.726;8.892;2022-11-20T10:30:13;7.93;;;4.27;;
31594;SDS011;18200;48.726;8.892;2022-11-20T10:34:23;4.22;;;3.80;;
31594;SDS011;18200;48.726;8.892;2022-11-20T10:38:37;6.40;;;5.78;;
31594;SDS011;18200;48.726;8.892;2022-11-20T10:42:44;1.67;;;1.33;;
31594;SDS011;18200;48.726;8.892;2022-11-20T10:46:47;2.60;;;1.65;;
31594;SDS011;18200;48.726;8.892;2022-11-20T10:50:59;3.47;;;2.28;;
31594;SDS011;18200;48.726;8.892;2022-11-20T10:55:25;4.30;;;1.55;;
31594;SDS011;18200;48.726;8.892;2022-11-20T11:03:55;3.08;;;1.70;;
31594;SDS011;18200;48.726;8.892;2022-11-20T11:07:57;9.43;;;7.80;;
31594;SDS011;18200;48.726;8.892;2022-11-20T11:11:59;9.80;;;2.15;;
31594;SDS011;18200;48.726;8.892;2022-11-20T11:15:59;6.78;;;4.20;;
31594;SDS011;18200;48.726;8.892;2022-11-20T11:24:05;6.45;;;2.63;;
31594;SDS011;18200;48.726;8.892;2022-11-20T11:32:19;5.25;;;1.83;;
31594;SDS011;18200;48.726;8.892;2022-11-20T11:36:22;4.17;;;1.80;;
31594;SDS011;18200;48.726;8.892;2022-11-20T11:40:25;7.80;;;1.65;;
31594;SDS011;18200;48.726;8.892;2022-11-20T11:44:35;3.78;;;1.30;;
31594;SDS011;18200;48.726;8.892;2022-11-20T11:48:59;4.70;;;1.42;;
31594;SDS011;18200;48.726;8.892;2022-11-20T11:53:08;2.70;;;1.10;;
31594;SDS011;18200;48.726;8.892;2022-11-20T11:57:59;2.42;;;1.17;;
31594;SDS011;18200;48.726;8.892;2022-11-20T12:01:47;6.53;;;1.42;;
31594;SDS011;18200;48.726;8.892;2022-11-20T12:06:01;4.35;;;1.27;;
31594;SDS011;18200;48.726;8.892;2022-11-20T12:10:17;7.43;;;1.58;;
31594;SDS011;18200;48.726;8.892;2022-11-20T12:14:37;9.48;;;2.90;;
31594;SDS011;18200;48.726;8.892;2022-11-20T12:18:42;3.92;;;1.27;;
31594;SDS011;18200;48.726;8.892;2022-11-20T12:22:49;4.38;;;1.67;;
31594;SDS011;18200;48.726;8.892;2022-11-20T12:27:03;6.38;;;1.35;;
31594;SDS011;18200;48.726;8.892;2022-11-20T12:31:24;5.90;;;1.30;;
31594;SDS011;18200;48.726;8.892;2022-11-20T12:36:19;2.05;;;1.27;;
31594;SDS011;18200;48.726;8.892;2022-11-20T12:44:52;2.85;;;0.90;;
31594;SDS011;18200;48.726;8.892;2022-11-20T12:57:37;3.70;;;1.20;;
31594;SDS011;18200;48.726;8.892;2022-11-20T13:01:49;2.38;;;1.33;;
31594;SDS011;18200;48.726;8.892;2022-11-20T13:05:59;2.72;;;1.25;;
31594;SDS011;18200;48.726;8.892;2022-11-20T13:10:18;2.85;;;1.00;;
31594;SDS011;18200;48.726;8.892;2022-11-20T13:14:49;3.88;;;1.20;;
31594;SDS011;18200;48.726;8.892;2022-11-20T13:18:54;4.18;;;0.95;;
31594;SDS011;18200;48.726;8.892;2022-11-20T13:22:55;2.55;;;0.98;;
31594;SDS011;18200;48.726;8.892;2022-11-20T13:31:32;2.50;;;1.00;;
31594;SDS011;18200;48.726;8.892;2022-11-20T13:39:42;2.08;;;1.15;;
31594;SDS011;18200;48.726;8.892;2022-11-20T13:47:54;6.65;;;2.30;;
31594;SDS011;18200;48.726;8.892;2022-11-20T13:52:14;6.60;;;2.40;;
31594;SDS011;18200;48.726;8.892;2022-11-20T14:01:26;7.93;;;2.30;;
31594;SDS011;18200;48.726;8.892;2022-11-20T15:10:05;8.90;;;2.72;;
31594;SDS011;18200;48.726;8.892;2022-11-20T15:30:00;8.77;;;4.10;;
31594;SDS011;18200;48.726;8.892;2022-11-20T15:34:16;5.95;;;3.13;;
31594;SDS011;18200;48.726;8.892;2022-11-20T15:38:18;19.67;;;8.35;;
31594;SDS011;18200;48.726;8.892;2022-11-20T15:42:57;18.00;;;8.10;;
31594;SDS011;18200;48.726;8.892;2022-11-20T15:47:10;5.13;;;3.10;;
31594;SDS011;18200;48.726;8.892;2022-11-20T15:52:24;7.97;;;4.22;;
31594;SDS011;18200;48.726;8.892;2022-11-20T15:56:25;7.32;;;3.50;;
31594;SDS011;18200;48.726;8.892;2022-11-20T16:00:26;9.10;;;4.35;;
31594;SDS011;18200;48.726;8.892;2022-11-20T16:04:26;6.30;;;4.18;;
31594;SDS011;18200;48.726;8.892;2022-11-20T16:08:27;8.65;;;4.85;;
31594;SDS011;18200;48.726;8.892;2022-11-20T16:12:27;7.18;;;2.97;;
31594;SDS011;18200;48.726;8.892;2022-11-20T16:16:46;12.48;;;6.30;;
31594;SDS011;18200;48.726;8.892;2022-11-20T16:20:48;9.30;;;3.58;;
31594;SDS011;18200;48.726;8.892;2022-11-20T16:24:51;7.45;;;3.55;;
31594;SDS011;18200;48.726;8.892;2022-11-20T16:28:51;5.35;;;2.88;;
31594;SDS011;18200;48.726;8.892;2022-11-20T16:32:51;8.20;;;3.47;;
31594;SDS011;18200;48.726;8.892;2022-11-20T16:36:52;13.95;;;4.35;;
31594;SDS011;18200;48.726;8.892;2022-11-20T16:40:52;9.48;;;3.50;;
31594;SDS011;18200;48.726;8.892;2022-11-20T16:44:59;12.05;;;4.57;;
31594;SDS011;18200;48.726;8.892;2022-11-20T16:49:01;8.85;;;4.68;;
31594;SDS011;18200;48.726;8.892;2022-11-20T16:53:05;6.55;;;3.03;;
31594;SDS011;18200;48.726;8.892;2022-11-20T16:57:06;16.23;;;8.13;;
31594;SDS011;18200;48.726;8.892;2022-11-20T17:01:07;6.65;;;3.90;;
31594;SDS011;18200;48.726;8.892;2022-11-20T17:05:09;7.25;;;2.95;;
31594;SDS011;18200;48.726;8.892;2022-11-20T17:09:10;4.22;;;2.88;;
31594;SDS011;18200;48.726;8.892;2022-11-20T17:13:10;7.57;;;3.80;;
31594;SDS011;18200;48.726;8.892;2022-11-20T17:17:11;6.43;;;4.28;;
31594;SDS011;18200;48.726;8.892;2022-11-20T17:21:11;7.13;;;3.95;;
31594;SDS011;18200;48.726;8.892;2022-11-20T17:25:12;7.47;;;3.58;;
31594;SDS011;18200;48.726;8.892;2022-11-20T17:29:17;7.82;;;3.35;;
31594;SDS011;18200;48.726;8.892;2022-11-20T17:33:18;8.02;;;3.55;;
31594;SDS011;18200;48.726;8.892;2022-11-20T17:37:19;12.50;;;5.53;;
31594;SDS011;18200;48.726;8.892;2022-11-20T17:41:20;9.30;;;4.53;;
31594;SDS011;18200;48.726;8.892;2022-11-20T17:45:24;13.35;;;5.78;;
31594;SDS011;18200;48.726;8.892;2022-11-20T17:49:24;14.55;;;7.00;;
31594;SDS011;18200;48.726;8.892;2022-11-20T17:53:25;5.80;;;3.30;;
31594;SDS011;18200;48.726;8.892;2022-11-20T17:57:26;9.30;;;5.55;;
31594;SDS011;18200;48.726;8.892;2022-11-20T18:01:45;21.75;;;9.40;;
31594;SDS011;18200;48.726;8.892;2022-11-20T18:05:45;8.93;;;4.15;;
31594;SDS011;18200;48.726;8.892;2022-11-20T18:09:46;9.85;;;3.38;;
31594;SDS011;18200;48.726;8.892;2022-11-20T18:13:48;5.68;;;3.30;;
31594;SDS011;18200;48.726;8.892;2022-11-20T18:18:12;10.45;;;4.45;;
31594;SDS011;18200;48.726;8.892;2022-11-20T18:22:14;6.47;;;3.30;;
31594;SDS011;18200;48.726;8.892;2022-11-20T18:26:16;10.45;;;3.60;;
31594;SDS011;18200;48.726;8.892;2022-11-20T18:30:18;6.57;;;4.00;;
31594;SDS011;18200;48.726;8.892;2022-11-20T18:34:19;7.90;;;3.90;;
31594;SDS011;18200;48.726;8.892;2022-11-20T18:38:19;5.93;;;3.55;;
31594;SDS011;18200;48.726;8.892;2022-11-20T18:42:19;7.10;;;4.30;;
31594;SDS011;18200;48.726;8.892;2022-11-20T18:46:38;9.38;;;6.07;;
31594;SDS011;18200;48.726;8.892;2022-11-20T18:50:39;4.80;;;2.47;;
31594;SDS011;18200;48.726;8.892;2022-11-20T18:54:40;4.45;;;2.70;;
31594;SDS011;18200;48.726;8.892;2022-11-20T18:58:41;3.58;;;2.20;;
31594;SDS011;18200;48.726;8.892;2022-11-20T19:02:41;2.85;;;1.60;;
31594;SDS011;18200;48.726;8.892;2022-11-20T19:06:43;3.72;;;1.50;;
31594;SDS011;18200;48.726;8.892;2022-11-20T19:10:44;2.50;;;1.05;;
31594;SDS011;18200;48.726;8.892;2022-11-20T19:14:45;2.78;;;1.50;;
31594;SDS011;18200;48.726;8.892;2022-11-20T19:18:46;3.65;;;1.58;;
31594;SDS011;18200;48.726;8.892;2022-11-20T19:22:50;4.75;;;1.85;;
31594;SDS011;18200;48.726;8.892;2022-11-20T19:26:52;1.95;;;1.55;;
31594;SDS011;18200;48.726;8.892;2022-11-20T19:30:55;3.70;;;1.85;;
31594;SDS011;18200;48.726;8.892;2022-11-20T19:34:55;1.38;;;1.00;;
31594;SDS011;18200;48.726;8.892;2022-11-20T19:38:55;2.08;;;1.10;;
31594;SDS011;18200;48.726;8.892;2022-11-20T19:42:56;3.30;;;1.08;;
31594;SDS011;18200;48.726;8.892;2022-11-20T19:46:56;1.42;;;1.00;;
31594;SDS011;18200;48.726;8.892;2022-11-20T19:50:57;3.08;;;2.78;;
31594;SDS011;18200;48.726;8.892;2022-11-20T19:54:58;1.67;;;1.20;;
31594;SDS011;18200;48.726;8.892;2022-11-20T19:58:58;3.20;;;1.42;;
31594;SDS011;18200;48.726;8.892;2022-11-20T20:02:59;4.00;;;2.63;;
31594;SDS011;18200;48.726;8.892;2022-11-20T20:07:00;0.95;;;0.63;;
31594;SDS011;18200;48.726;8.892;2022-11-20T20:11:12;1.73;;;0.98;;
31594;SDS011;18200;48.726;8.892;2022-11-20T20:15:17;0.90;;;0.73;;
31594;SDS011;18200;48.726;8.892;2022-11-20T20:19:18;1.75;;;0.82;;
31594;SDS011;18200;48.726;8.892;2022-11-20T20:23:18;1.95;;;1.55;;
31594;SDS011;18200;48.726;8.892;2022-11-20T20:27:19;0.90;;;0.50;;
31594;SDS011;18200;48.726;8.892;2022-11-20T20:31:20;1.02;;;0.60;;
31594;SDS011;18200;48.726;8.892;2022-11-20T20:35:22;9.13;;;6.68;;
31594;SDS011;18200;48.726;8.892;2022-11-20T20:39:22;0.70;;;0.55;;
31594;SDS011;18200;48.726;8.892;2022-11-20T20:43:23;0.80;;;0.50;;
31594;SDS011;18200;48.726;8.892;2022-11-20T20:47:28;3.35;;;1.40;;
31594;SDS011;18200;48.726;8.892;2022-11-20T20:51:29;0.30;;;0.30;;
31594;SDS011;18200;48.726;8.892;2022-11-20T20:55:29;0.85;;;0.60;;
31594;SDS011;18200;48.726;8.892;2022-11-20T20:59:31;0.77;;;0.50;;
31594;SDS011;18200;48.726;8.892;2022-11-20T21:03:32;3.67;;;3.33;;
31594;SDS011;18200;48.726;8.892;2022-11-20T21:07:33;1.40;;;0.70;;
31594;SDS011;18200;48.726;8.892;2022-11-20T21:11:53;0.93;;;0.50;;
31594;SDS011;18200;48.726;8.892;2022-11-20T21:15:54;1.98;;;1.25;;
31594;SDS011;18200;48.726;8.892;2022-11-20T21:19:54;3.17;;;1.50;;
31594;SDS011;18200;48.726;8.892;2022-11-20T21:23:55;0.68;;;0.60;;
31594;SDS011;18200;48.726;8.892;2022-11-20T21:27:55;3.63;;;2.05;;
31594;SDS011;18200;48.726;8.892;2022-11-20T21:31:56;3.03;;;1.00;;
31594;SDS011;18200;48.726;8.892;2022-11-20T21:35:57;4.50;;;0.73;;
31594;SDS011;18200;48.726;8.892;2022-11-20T21:39:57;1.33;;;0.60;;
31594;SDS011;18200;48.726;8.892;2022-11-20T21:43:58;1.10;;;0.73;;
31594;SDS011;18200;48.726;8.892;2022-11-20T21:47:59;3.17;;;0.77;;
31594;SDS011;18200;48.726;8.892;2022-11-20T21:51:59;2.03;;;1.00;;
31594;SDS011;18200;48.726;8.892;2022-11-20T21:56:00;1.17;;;1.00;;
31594;SDS011;18200;48.726;8.892;2022-11-20T22:00:03;1.85;;;0.95;;
31594;SDS011;18200;48.726;8.892;2022-11-20T22:04:13;1.67;;;0.88;;
31594;SDS011;18200;48.726;8.892;2022-11-20T22:08:17;3.63;;;1.00;;
31594;SDS011;18200;48.726;8.892;2022-11-20T22:12:17;4.25;;;1.10;;
31594;SDS011;18200;48.726;8.892;2022-11-20T22:16:18;1.88;;;0.95;;
31594;SDS011;18200;48.726;8.892;2022-11-20T22:20:18;3.45;;;1.00;;
31594;SDS011;18200;48.726;8.892;2022-11-20T22:24:19;3.45;;;0.75;;
31594;SDS011;18200;48.726;8.892;2022-11-20T22:28:20;2.17;;;0.80;;
31594;SDS011;18200;48.726;8.892;2022-11-20T22:32:21;1.17;;;0.50;;
31594;SDS011;18200;48.726;8.892;2022-11-20T22:36:22;1.45;;;0.57;;
31594;SDS011;18200;48.726;8.892;2022-11-20T22:40:24;1.38;;;0.63;;
31594;SDS011;18200;48.726;8.892;2022-11-20T22:44:24;2.28;;;0.77;;
31594;SDS011;18200;48.726;8.892;2022-11-20T22:48:24;2.60;;;1.10;;
31594;SDS011;18200;48.726;8.892;2022-11-20T22:52:25;0.82;;;0.60;;
31594;SDS011;18200;48.726;8.892;2022-11-20T22:56:25;1.90;;;0.95;;
31594;SDS011;18200;48.726;8.892;2022-11-20T23:00:26;0.68;;;0.47;;
31594;SDS011;18200;48.726;8.892;2022-11-20T23:04:26;1.13;;;0.60;;
31594;SDS011;18200;48.726;8.892;2022-11-20T23:08:27;0.80;;;0.40;;
31594;SDS011;18200;48.726;8.892;2022-11-20T23:12:27;1.27;;;0.50;;
31594;SDS011;18200;48.726;8.892;2022-11-20T23:16:28;2.15;;;0.68;;
31594;SDS011;18200;48.726;8.892;2022-11-20T23:20:30;1.30;;;0.55;;
31594;SDS011;18200;48.726;8.892;2022-11-20T23:24:30;4.28;;;0.70;;
31594;SDS011;18200;48.726;8.892;2022-11-20T23:28:31;2.08;;;0.30;;
31594;SDS011;18200;48.726;8.892;2022-11-20T23:32:31;4.20;;;0.50;;
31594;SDS011;18200;48.726;8.892;2022-11-20T23:36:32;1.48;;;0.47;;
31594;SDS011;18200;48.726;8.892;2022-11-20T23:40:33;1.23;;;0.70;;
31594;SDS011;18200;48.726;8.892;2022-11-20T23:44:34;4.72;;;0.70;;
31594;SDS011;18200;48.726;8.892;2022-11-20T23:48:35;1.70;;;0.47;;
31594;SDS011;18200;48.726;8.892;2022-11-20T23:52:36;1.95;;;0.70;;
31594;SDS011;18200;48.726;8.892;2022-11-20T23:56:36;1.77;;;0.50;;
